createdAt,value
2024-04-25T00:01:52.744Z,3.50
2024-04-25T00:04:19.744Z,3.20
2024-04-25T00:06:46.760Z,3.00
2024-04-25T00:09:13.675Z,3.23
2024-04-25T00:11:40.812Z,3.17
2024-04-25T00:14:08.073Z,3.37
2024-04-25T00:16:35.135Z,3.40
2024-04-25T00:19:02.067Z,3.20
2024-04-25T00:21:28.971Z,3.20
2024-04-25T00:23:56.280Z,3.10
2024-04-25T00:26:23.415Z,3.47
2024-04-25T00:28:50.342Z,3.03
2024-04-25T00:31:17.344Z,2.93
2024-04-25T00:33:44.416Z,3.20
2024-04-25T00:36:11.407Z,3.00
2024-04-25T00:38:38.471Z,3.00
2024-04-25T00:41:05.509Z,3.40
2024-04-25T00:43:33.262Z,3.50
2024-04-25T00:46:00.531Z,2.90
2024-04-25T00:48:32.698Z,3.10
2024-04-25T00:51:02.951Z,3.27
2024-04-25T00:53:30.928Z,3.40
2024-04-25T00:55:59.149Z,3.43
2024-04-25T00:58:27.507Z,3.07
2024-04-25T01:00:55.482Z,3.57
2024-04-25T01:03:24.165Z,3.10
2024-04-25T01:05:52.966Z,3.23
2024-04-25T01:08:19.947Z,3.60
2024-04-25T01:10:47.383Z,3.60
2024-04-25T01:13:18.197Z,3.00
2024-04-25T01:15:45.179Z,3.40
2024-04-25T01:18:14.994Z,3.27
2024-04-25T01:20:42.328Z,3.40
2024-04-25T01:23:12.445Z,3.73
2024-04-25T01:25:40.184Z,3.53
2024-04-25T01:28:07.521Z,3.93
2024-04-25T01:30:35.407Z,3.77
2024-04-25T01:33:04.425Z,3.87
2024-04-25T01:35:32.923Z,4.00
2024-04-25T01:38:00.900Z,4.03
2024-04-25T01:40:28.040Z,3.80
2024-04-25T01:42:54.935Z,4.17
2024-04-25T01:45:21.830Z,3.63
2024-04-25T01:47:48.927Z,3.70
2024-04-25T01:50:16.138Z,3.37
2024-04-25T01:52:43.088Z,3.43
2024-04-25T01:55:11.740Z,4.07
2024-04-25T01:57:38.677Z,3.93
2024-04-25T02:00:05.999Z,4.00
2024-04-25T02:02:32.909Z,3.70
2024-04-25T02:04:59.884Z,3.73
2024-04-25T02:07:26.851Z,3.63
2024-04-25T02:09:53.823Z,3.57
2024-04-25T02:12:20.683Z,3.90
2024-04-25T02:14:47.547Z,3.87
2024-04-25T02:17:15.222Z,3.70
2024-04-25T02:19:42.401Z,3.77
2024-04-25T02:22:28.185Z,3.67
2024-04-25T02:25:13.660Z,3.90
2024-04-25T02:27:40.615Z,3.20
2024-04-25T02:30:08.367Z,3.80
2024-04-25T02:32:35.440Z,3.63
2024-04-25T02:35:02.359Z,3.40
2024-04-25T02:37:29.287Z,3.77
2024-04-25T02:39:56.240Z,3.90
2024-04-25T02:48:04.805Z,4.10
2024-04-25T02:50:31.844Z,3.70
2024-04-25T02:52:59.503Z,4.13
2024-04-25T02:55:26.772Z,3.93
2024-04-25T02:57:53.811Z,3.87
2024-04-25T03:00:20.764Z,3.73
2024-04-25T03:02:48.023Z,3.90
2024-04-25T03:05:15.143Z,3.87
2024-04-25T03:07:42.292Z,3.73
2024-04-25T03:10:09.218Z,3.80
2024-04-25T03:12:36.074Z,3.70
2024-04-25T03:15:05.269Z,3.70
2024-04-25T03:17:32.261Z,3.80
2024-04-25T03:19:59.110Z,3.63
2024-04-25T03:22:26.211Z,4.00
2024-04-25T03:24:53.070Z,3.47
2024-04-25T03:27:20.015Z,4.27
2024-04-25T03:29:48.278Z,4.23
2024-04-25T03:32:15.165Z,4.07
2024-04-25T03:34:42.166Z,4.10
2024-04-25T03:37:09.039Z,4.23
2024-04-25T03:39:36.133Z,4.47
2024-04-25T03:42:03.259Z,4.50
2024-04-25T03:44:30.698Z,4.23
2024-04-25T03:46:58.218Z,3.83
2024-04-25T03:49:25.130Z,4.47
2024-04-25T03:51:52.053Z,4.57
2024-04-25T03:54:18.949Z,4.40
2024-04-25T04:00:05.199Z,4.70
2024-04-25T04:02:32.199Z,4.40
2024-04-25T04:04:59.173Z,4.57
2024-04-25T04:07:28.356Z,4.37
2024-04-25T04:09:55.581Z,4.77
2024-04-25T04:12:22.872Z,5.93
2024-04-25T04:14:50.124Z,5.23
2024-04-25T04:17:17.172Z,5.30
2024-04-25T04:19:44.110Z,5.23
2024-04-25T04:22:11.365Z,5.70
2024-04-25T04:24:38.352Z,4.83
2024-04-25T04:27:05.363Z,5.20
2024-04-25T04:29:32.304Z,4.53
2024-04-25T04:31:59.334Z,4.23
2024-04-25T04:34:26.381Z,4.70
2024-04-25T04:36:53.248Z,4.50
2024-04-25T04:39:20.191Z,4.30
2024-04-25T04:41:47.064Z,4.10
2024-04-25T04:44:15.041Z,4.50
2024-04-25T04:46:42.945Z,4.40
2024-04-25T04:49:09.826Z,4.53
2024-04-25T04:51:38.471Z,4.43
2024-04-25T04:54:06.108Z,4.10
2024-04-25T04:56:33.061Z,3.90
2024-04-25T04:59:00.036Z,4.07
2024-04-25T05:01:26.916Z,4.70
2024-04-25T05:03:54.048Z,4.37
2024-04-25T05:06:20.984Z,3.97
2024-04-25T05:08:48.021Z,3.67
2024-04-25T05:11:15.182Z,4.00
2024-04-25T05:13:42.153Z,5.47
2024-04-25T05:16:10.732Z,5.57
2024-04-25T05:18:40.432Z,5.50
2024-04-25T05:21:07.863Z,4.80
2024-04-25T05:23:34.926Z,5.70
2024-04-25T05:26:01.860Z,7.23
2024-04-25T05:28:28.847Z,8.00
2024-04-25T05:30:55.851Z,8.50
2024-04-25T05:33:22.916Z,5.53
2024-04-25T05:35:51.829Z,5.93
2024-04-25T05:38:18.877Z,5.67
2024-04-25T05:40:45.887Z,6.53
2024-04-25T05:43:14.270Z,6.40
2024-04-25T05:45:41.531Z,5.70
2024-04-25T05:48:09.545Z,6.40
2024-04-25T05:50:36.794Z,6.43
2024-04-25T05:53:05.850Z,6.43
2024-04-25T05:55:32.798Z,5.33
2024-04-25T05:57:59.633Z,5.40
2024-04-25T06:00:26.540Z,5.40
2024-04-25T06:02:53.630Z,5.63
2024-04-25T06:05:20.606Z,6.50
2024-04-25T06:07:47.664Z,5.40
2024-04-25T06:10:14.684Z,6.23
2024-04-25T06:12:44.023Z,7.07
2024-04-25T06:15:11.235Z,8.00
2024-04-25T06:17:41.981Z,8.20
2024-04-25T06:20:09.462Z,8.07
2024-04-25T06:22:36.420Z,7.47
2024-04-25T06:25:03.462Z,6.97
2024-04-25T06:27:31.407Z,7.87
2024-04-25T06:29:58.352Z,8.10
2024-04-25T06:32:25.406Z,6.60
2024-04-25T06:34:52.478Z,7.43
2024-04-25T06:37:20.722Z,7.97
2024-04-25T06:39:48.196Z,8.10
2024-04-25T06:42:15.923Z,21.50
2024-04-25T06:44:49.981Z,7.87
2024-04-25T06:47:23.499Z,15.23
2024-04-25T06:49:50.614Z,8.87
2024-04-25T06:52:18.322Z,5.07
2024-04-25T06:54:45.349Z,4.40
2024-04-25T06:57:12.368Z,3.40
2024-04-25T06:59:43.714Z,3.33
2024-04-25T07:02:13.381Z,2.73
2024-04-25T07:04:40.331Z,2.70
2024-04-25T07:07:07.178Z,2.90
2024-04-25T07:12:24.677Z,2.73
2024-04-25T07:14:51.607Z,2.60
2024-04-25T07:17:18.622Z,2.40
2024-04-25T07:19:45.752Z,2.23
2024-04-25T07:22:12.800Z,2.50
2024-04-25T07:24:39.700Z,2.30
2024-04-25T07:45:41.648Z,2.27
2024-04-25T07:48:09.921Z,2.77
2024-04-25T07:50:36.997Z,2.03
2024-04-25T07:53:03.967Z,1.70
2024-04-25T07:55:30.898Z,2.57
2024-04-25T07:57:57.833Z,3.77
2024-04-25T08:00:24.713Z,2.20
2024-04-25T08:02:52.308Z,1.90
2024-04-25T08:05:19.280Z,2.00
2024-04-25T08:07:47.580Z,1.97
2024-04-25T08:10:14.582Z,2.00
2024-04-25T08:12:43.491Z,1.90
2024-04-25T08:15:10.481Z,2.30
2024-04-25T08:17:38.446Z,2.60
2024-04-25T08:20:05.885Z,1.87
2024-04-25T08:22:32.749Z,2.40
2024-04-25T08:24:59.704Z,2.20
2024-04-25T08:27:26.625Z,2.13
2024-04-25T08:29:53.605Z,1.70
2024-04-25T08:32:24.083Z,1.80
2024-04-25T08:34:52.855Z,1.73
2024-04-25T08:37:19.828Z,2.87
2024-04-25T08:39:46.803Z,2.00
2024-04-25T08:42:17.567Z,2.47
2024-04-25T08:44:44.932Z,3.40
2024-04-25T08:47:13.754Z,1.60
2024-04-25T08:49:41.958Z,1.57
2024-04-25T08:52:09.002Z,1.40
2024-04-25T08:54:39.091Z,1.33
2024-04-25T08:57:06.061Z,1.40
2024-04-25T08:59:33.009Z,2.03
2024-04-25T09:02:01.097Z,1.60
2024-04-25T09:04:28.893Z,1.57
2024-04-25T09:06:55.979Z,1.57
2024-04-25T09:09:25.228Z,1.70
2024-04-25T09:11:55.801Z,1.37
2024-04-25T09:14:22.830Z,1.57
2024-04-25T09:16:49.755Z,1.57
2024-04-25T09:19:16.738Z,1.13
2024-04-25T09:21:44.820Z,1.20
2024-04-25T09:24:12.282Z,1.53
2024-04-25T09:26:39.250Z,1.73
2024-04-25T09:29:07.718Z,1.33
2024-04-25T09:31:38.302Z,1.13
2024-04-25T09:34:05.553Z,1.53
2024-04-25T09:36:32.649Z,1.10
2024-04-25T09:38:59.490Z,0.93
2024-04-25T09:41:28.602Z,0.73
2024-04-25T09:43:55.832Z,0.80
2024-04-25T09:46:36.628Z,1.37
2024-04-25T09:49:07.745Z,0.80
2024-04-25T09:51:40.201Z,1.30
2024-04-25T09:54:20.880Z,1.70
2024-04-25T09:56:57.396Z,1.37
2024-04-25T09:59:43.180Z,1.50
2024-04-25T10:02:22.516Z,1.20
2024-04-25T10:04:50.453Z,1.03
2024-04-25T10:07:19.975Z,1.40
2024-04-25T10:09:47.478Z,1.33
2024-04-25T10:12:26.211Z,1.30
2024-04-25T10:15:05.787Z,1.13
2024-04-25T10:17:35.723Z,1.20
2024-04-25T10:20:06.101Z,0.90
2024-04-25T10:22:35.479Z,0.93
2024-04-25T10:25:05.079Z,0.87
2024-04-25T10:27:32.373Z,0.90
2024-04-25T10:30:08.057Z,1.60
2024-04-25T10:32:35.730Z,1.43
2024-04-25T10:35:03.333Z,1.20
2024-04-25T10:37:36.542Z,1.30
2024-04-25T10:40:03.975Z,1.30
2024-04-25T10:42:30.865Z,1.40
2024-04-25T10:44:57.923Z,1.40
2024-04-25T10:47:25.091Z,1.20
2024-04-25T10:49:52.127Z,1.03
2024-04-25T10:52:19.225Z,1.40
2024-04-25T10:54:46.504Z,0.90
2024-04-25T10:57:14.684Z,1.20
2024-04-25T10:59:42.522Z,1.57
2024-04-25T11:02:10.398Z,1.07
2024-04-25T11:04:38.160Z,1.10
2024-04-25T11:07:10.674Z,1.13
2024-04-25T11:09:37.907Z,1.40
2024-04-25T11:12:06.987Z,1.10
2024-04-25T11:14:37.754Z,1.30
2024-04-25T11:17:04.863Z,1.20
2024-04-25T11:19:35.678Z,1.20
2024-04-25T11:22:07.442Z,1.00
2024-04-25T11:24:34.509Z,0.80
2024-04-25T11:27:03.524Z,1.40
2024-04-25T11:29:34.804Z,1.20
2024-04-25T11:32:05.094Z,1.17
2024-04-25T11:34:34.649Z,1.10
2024-04-25T11:37:04.031Z,0.90
2024-04-25T11:39:32.337Z,1.10
2024-04-25T11:42:06.414Z,0.77
2024-04-25T11:44:34.747Z,1.07
2024-04-25T11:47:06.352Z,1.40
2024-04-25T11:49:34.182Z,1.00
2024-04-25T11:52:01.290Z,1.30
2024-04-25T11:54:28.331Z,1.13
2024-04-25T11:56:56.054Z,1.20
2024-04-25T11:59:23.863Z,1.30
2024-04-25T12:01:54.626Z,1.10
2024-04-25T12:04:22.206Z,1.30
2024-04-25T12:06:49.233Z,1.20
2024-04-25T12:09:16.126Z,1.63
2024-04-25T12:11:47.987Z,1.23
2024-04-25T12:14:17.768Z,1.50
2024-04-25T12:16:44.919Z,1.17
2024-04-25T12:19:12.104Z,1.70
2024-04-25T12:21:39.184Z,0.90
2024-04-25T12:24:06.384Z,0.80
2024-04-25T12:26:33.276Z,1.23
2024-04-25T12:29:00.277Z,1.10
2024-04-25T12:31:27.265Z,1.37
2024-04-25T12:33:56.262Z,1.10
2024-04-25T12:36:23.602Z,1.40
2024-04-25T12:38:50.660Z,1.63
2024-04-25T12:41:17.963Z,1.43
2024-04-25T12:43:45.969Z,1.20
2024-04-25T12:46:12.953Z,1.53
2024-04-25T12:48:40.010Z,1.37
2024-04-25T12:51:07.050Z,2.03
2024-04-25T12:53:34.834Z,1.30
2024-04-25T12:56:01.907Z,1.60
2024-04-25T12:58:29.231Z,1.27
2024-04-25T13:00:56.332Z,1.20
2024-04-25T13:03:24.524Z,1.53
2024-04-25T13:05:53.201Z,1.50
2024-04-25T13:08:20.205Z,1.90
2024-04-25T13:10:48.074Z,1.77
2024-04-25T13:13:17.811Z,2.30
2024-04-25T13:15:44.786Z,1.43
2024-04-25T13:18:11.741Z,1.53
2024-04-25T13:20:39.000Z,1.23
2024-04-25T13:23:05.987Z,1.60
2024-04-25T13:25:37.150Z,1.33
2024-04-25T13:28:07.901Z,1.30
2024-04-25T13:30:34.858Z,1.63
2024-04-25T13:33:01.886Z,1.60
2024-04-25T13:35:28.947Z,1.37
2024-04-25T13:37:59.492Z,1.30
2024-04-25T13:40:28.338Z,1.23
2024-04-25T13:42:55.191Z,1.43
2024-04-25T13:45:22.162Z,1.70
2024-04-25T13:47:49.300Z,1.40
2024-04-25T13:50:18.659Z,1.47
2024-04-25T13:52:47.047Z,1.37
2024-04-25T13:55:14.237Z,1.70
2024-04-25T13:57:42.456Z,1.60
2024-04-25T14:00:10.182Z,1.50
2024-04-25T14:02:37.212Z,1.60
2024-04-25T14:05:04.323Z,1.40
2024-04-25T14:07:31.260Z,1.00
2024-04-25T14:10:00.705Z,1.50
2024-04-25T14:12:29.602Z,1.43
2024-04-25T14:14:57.211Z,1.27
2024-04-25T14:17:24.425Z,1.67
2024-04-25T14:19:51.442Z,1.43
2024-04-25T14:22:18.469Z,1.27
2024-04-25T14:24:47.321Z,1.43
2024-04-25T14:27:32.854Z,1.37
2024-04-25T14:29:59.794Z,1.80
2024-04-25T14:32:27.136Z,1.40
2024-04-25T14:34:56.781Z,1.43
2024-04-25T14:37:24.802Z,1.67
2024-04-25T14:39:52.146Z,1.80
2024-04-25T14:42:19.469Z,1.43
2024-04-25T14:44:47.588Z,1.40
2024-04-25T14:47:14.794Z,1.50
2024-04-25T14:49:41.924Z,1.67
2024-04-25T14:52:08.846Z,1.40
2024-04-25T14:54:35.708Z,1.50
2024-04-25T14:57:02.736Z,1.57
2024-04-25T14:59:29.740Z,1.63
2024-04-25T15:01:56.690Z,1.67
2024-04-25T15:04:23.577Z,1.80
2024-04-25T15:06:50.644Z,1.43
2024-04-25T15:09:17.635Z,1.60
2024-04-25T15:12:01.116Z,1.50
2024-04-25T15:14:28.071Z,1.27
2024-04-25T15:16:55.192Z,1.43
2024-04-25T15:19:22.235Z,1.70
2024-04-25T15:21:49.248Z,1.50
2024-04-25T15:24:16.447Z,1.40
2024-04-25T15:26:43.527Z,1.50
2024-04-25T15:29:10.658Z,1.40
2024-04-25T15:31:37.568Z,1.20
2024-04-25T15:34:04.898Z,1.73
2024-04-25T15:36:31.940Z,1.30
2024-04-25T15:39:00.560Z,1.93
2024-04-25T15:41:27.958Z,1.60
2024-04-25T15:43:54.845Z,1.77
2024-04-25T15:46:21.679Z,1.47
2024-04-25T15:48:48.815Z,1.03
2024-04-25T15:51:15.982Z,1.40
2024-04-25T15:53:42.998Z,1.50
2024-04-25T15:56:10.278Z,1.50
2024-04-25T15:58:37.143Z,1.70
2024-04-25T16:01:04.219Z,1.40
2024-04-25T16:03:31.999Z,1.70
2024-04-25T16:05:59.146Z,2.00
2024-04-25T16:08:29.464Z,1.60
2024-04-25T16:10:56.443Z,1.60
2024-04-25T16:13:23.412Z,1.40
2024-04-25T16:15:50.251Z,2.20
2024-04-25T16:18:17.292Z,1.97
2024-04-25T16:20:44.249Z,2.13
2024-04-25T16:23:11.146Z,1.63
2024-04-25T16:25:38.127Z,1.63
2024-04-25T16:28:05.238Z,1.73
2024-04-25T16:30:32.125Z,1.60
2024-04-25T16:32:59.253Z,1.33
2024-04-25T16:35:26.321Z,1.60
2024-04-25T16:37:53.876Z,1.77
2024-04-25T16:40:20.851Z,1.53
2024-04-25T16:42:48.834Z,1.57
2024-04-25T16:45:16.238Z,1.57
2024-04-25T16:47:43.283Z,1.80
2024-04-25T16:50:11.005Z,1.67
2024-04-25T16:52:38.056Z,1.80
2024-04-25T16:55:05.169Z,1.57
2024-04-25T16:57:32.918Z,1.60
2024-04-25T17:00:00.007Z,1.83
2024-04-25T17:02:27.016Z,1.70
2024-04-25T17:04:54.262Z,1.80
2024-04-25T17:07:21.523Z,1.80
2024-04-25T17:09:48.534Z,1.63
2024-04-25T17:12:16.633Z,1.70
2024-04-25T17:14:43.837Z,2.40
2024-04-25T17:17:11.732Z,1.90
2024-04-25T17:19:38.791Z,1.90
2024-04-25T17:22:10.005Z,1.80
2024-04-25T17:24:38.322Z,2.10
2024-04-25T17:27:05.344Z,1.80
2024-04-25T17:29:32.262Z,1.60
2024-04-25T17:31:59.355Z,1.73
2024-04-25T17:34:26.968Z,1.70
2024-04-25T17:36:53.963Z,1.90
2024-04-25T17:39:20.889Z,2.10
2024-04-25T17:41:48.034Z,1.83
2024-04-25T17:44:15.298Z,1.90
2024-04-25T17:46:42.220Z,2.23
2024-04-25T17:49:09.417Z,1.83
2024-04-25T17:51:37.136Z,2.40
2024-04-25T17:54:04.130Z,1.93
2024-04-25T17:56:31.094Z,2.13
2024-04-25T17:58:58.109Z,1.80
2024-04-25T18:01:25.093Z,1.70
2024-04-25T18:03:52.005Z,1.70
2024-04-25T18:06:19.044Z,1.90
2024-04-25T18:08:46.032Z,1.80
2024-04-25T18:11:13.378Z,1.83
2024-04-25T18:13:41.822Z,2.93
2024-04-25T18:16:08.873Z,2.57
2024-04-25T18:18:35.833Z,2.30
2024-04-25T18:21:03.120Z,2.90
2024-04-25T18:23:30.045Z,3.73
2024-04-25T18:25:57.079Z,4.57
2024-04-25T18:28:24.860Z,2.80
2024-04-25T18:30:51.881Z,2.73
2024-04-25T18:33:18.989Z,2.60
2024-04-25T18:35:46.094Z,2.13
2024-04-25T18:38:13.125Z,1.97
2024-04-25T18:40:39.949Z,2.20
2024-04-25T18:43:07.753Z,2.00
2024-04-25T18:45:34.781Z,2.13
2024-04-25T18:48:01.904Z,1.87
2024-04-25T18:50:29.142Z,2.00
2024-04-25T18:52:56.100Z,1.90
2024-04-25T18:55:24.179Z,2.10
2024-04-25T18:57:51.069Z,2.20
2024-04-25T19:00:18.288Z,2.20
2024-04-25T19:02:45.288Z,1.77
2024-04-25T19:05:12.904Z,1.93
2024-04-25T19:07:39.838Z,1.70
2024-04-25T19:10:07.222Z,1.77
2024-04-25T19:12:38.141Z,1.83
2024-04-25T19:15:06.257Z,1.67
2024-04-25T19:17:33.170Z,1.63
2024-04-25T19:20:00.276Z,1.83
2024-04-25T19:22:29.832Z,1.57
2024-04-25T19:24:57.767Z,1.80
2024-04-25T19:27:25.964Z,1.73
2024-04-25T19:29:53.779Z,1.60
2024-04-25T19:32:21.295Z,2.33
2024-04-25T19:34:52.506Z,1.73
2024-04-25T19:37:19.463Z,2.17
2024-04-25T19:39:46.293Z,1.83
2024-04-25T19:42:19.535Z,2.00
2024-04-25T19:44:46.821Z,1.97
2024-04-25T19:47:13.798Z,2.27
2024-04-25T19:49:40.834Z,1.80
2024-04-25T19:52:10.900Z,1.80
2024-04-25T19:54:37.812Z,5.77
2024-04-25T19:57:04.842Z,6.93
2024-04-25T19:59:33.017Z,6.97
2024-04-25T20:02:00.029Z,6.40
2024-04-25T20:04:27.287Z,4.13
2024-04-25T20:06:54.341Z,2.80
2024-04-25T20:09:21.433Z,3.00
2024-04-25T20:11:48.646Z,2.93
2024-04-25T20:14:16.008Z,3.43
2024-04-25T20:16:43.035Z,3.20
2024-04-25T20:19:28.616Z,4.77
2024-04-25T20:21:55.682Z,3.93
2024-04-25T20:24:22.668Z,3.50
2024-04-25T20:26:50.285Z,3.10
2024-04-25T20:29:17.368Z,3.00
2024-04-25T20:31:44.701Z,2.80
2024-04-25T20:34:11.844Z,2.70
2024-04-25T20:36:39.064Z,3.13
2024-04-25T20:39:06.178Z,3.33
2024-04-25T20:41:33.374Z,3.50
2024-04-25T20:44:00.275Z,3.70
2024-04-25T20:46:27.490Z,3.80
2024-04-25T20:48:57.694Z,3.40
2024-04-25T20:51:26.459Z,2.77
2024-04-25T20:53:54.369Z,2.77
2024-04-25T20:56:22.879Z,2.67
2024-04-25T20:58:50.092Z,2.80
2024-04-25T21:01:17.088Z,2.80
2024-04-25T21:03:44.104Z,2.57
2024-04-25T21:06:11.058Z,2.63
2024-04-25T21:08:38.271Z,2.50
2024-04-25T21:11:09.091Z,2.67
2024-04-25T21:13:36.076Z,2.30
2024-04-25T21:16:03.039Z,2.53
2024-04-25T21:18:30.114Z,2.37
2024-04-25T21:21:01.046Z,2.60
2024-04-25T21:23:29.944Z,2.57
2024-04-25T21:26:01.208Z,2.90
2024-04-25T21:28:29.141Z,2.80
2024-04-25T21:30:56.006Z,2.70
2024-04-25T21:33:23.805Z,2.87
2024-04-25T21:35:51.181Z,3.33
2024-04-25T21:38:18.473Z,2.90
2024-04-25T21:40:46.269Z,2.77
2024-04-25T21:43:13.344Z,2.73
2024-04-25T21:45:40.342Z,2.37
2024-04-25T21:48:07.782Z,2.50
2024-04-25T21:50:35.829Z,2.50
2024-04-25T21:53:02.946Z,3.03
2024-04-25T21:55:30.000Z,2.90
2024-04-25T21:57:59.142Z,3.10
2024-04-25T22:00:28.147Z,2.80
2024-04-25T22:02:57.224Z,2.80
2024-04-25T22:05:24.584Z,2.80
2024-04-25T22:07:51.500Z,2.97
2024-04-25T22:10:18.475Z,2.93
2024-04-25T22:12:45.405Z,2.70
2024-04-25T22:15:12.328Z,2.97
2024-04-25T22:17:39.432Z,2.73
2024-04-25T22:20:06.689Z,2.60
2024-04-25T22:22:34.130Z,2.40
2024-04-25T22:25:01.112Z,2.30
2024-04-25T22:27:28.103Z,2.50
2024-04-25T22:29:55.047Z,2.60
2024-04-25T22:32:22.073Z,2.30
2024-04-25T22:34:48.988Z,2.80
2024-04-25T22:37:15.874Z,2.43
2024-04-25T22:39:42.814Z,2.40
2024-04-25T22:42:09.727Z,2.13
2024-04-25T22:44:37.118Z,2.20
2024-04-25T22:47:04.099Z,2.20
2024-04-25T22:49:31.119Z,2.43
2024-04-25T22:51:58.054Z,2.30
2024-04-25T22:54:25.032Z,2.70
2024-04-25T22:56:52.299Z,2.47
2024-04-25T22:59:19.173Z,2.50
2024-04-25T23:01:46.107Z,2.73
2024-04-25T23:04:13.105Z,2.27
2024-04-25T23:06:40.101Z,2.50
2024-04-25T23:09:07.127Z,2.50
2024-04-25T23:11:34.186Z,2.43
2024-04-25T23:14:02.228Z,2.60
2024-04-25T23:16:29.596Z,2.53
2024-04-25T23:18:56.736Z,2.83
2024-04-25T23:21:23.723Z,2.50
2024-04-25T23:23:50.725Z,2.77
2024-04-25T23:26:17.820Z,2.60
2024-04-25T23:28:44.795Z,2.70
2024-04-25T23:31:21.673Z,2.70
2024-04-25T23:33:48.825Z,2.80
2024-04-25T23:36:16.537Z,2.67
2024-04-25T23:38:44.717Z,2.80
2024-04-25T23:41:11.764Z,2.73
2024-04-25T23:43:41.401Z,2.77
2024-04-25T23:46:08.303Z,2.40
2024-04-25T23:48:35.295Z,2.83
2024-04-25T23:51:05.106Z,2.63
2024-04-25T23:53:32.129Z,2.90
2024-04-25T23:55:59.994Z,2.60
2024-04-25T23:58:26.926Z,2.70
